sensor_id;sensor_type;location;lat;lon;timestamp;P1;durP1;ratioP1;P2;durP2;ratioP2
24787;SDS011;12883;52.662;5.196;2023-05-20T00:00:10;6.70;;;6.70;;
24787;SDS011;12883;52.662;5.196;2023-05-20T00:02:36;7.00;;;7.00;;
24787;SDS011;12883;52.662;5.196;2023-05-20T00:05:02;6.83;;;6.83;;
24787;SDS011;12883;52.662;5.196;2023-05-20T00:07:27;6.40;;;6.40;;
24787;SDS011;12883;52.662;5.196;2023-05-20T00:09:53;6.93;;;6.93;;
24787;SDS011;12883;52.662;5.196;2023-05-20T00:12:18;7.57;;;7.57;;
24787;SDS011;12883;52.662;5.196;2023-05-20T00:14:43;7.30;;;7.30;;
24787;SDS011;12883;52.662;5.196;2023-05-20T00:17:09;8.43;;;8.33;;
24787;SDS011;12883;52.662;5.196;2023-05-20T00:19:34;7.83;;;7.83;;
24787;SDS011;12883;52.662;5.196;2023-05-20T00:21:59;6.83;;;6.83;;
24787;SDS011;12883;52.662;5.196;2023-05-20T00:24:25;7.47;;;7.47;;
24787;SDS011;12883;52.662;5.196;2023-05-20T00:26:51;8.20;;;8.20;;
24787;SDS011;12883;52.662;5.196;2023-05-20T00:29:16;8.30;;;8.27;;
24787;SDS011;12883;52.662;5.196;2023-05-20T00:31:42;7.63;;;7.63;;
24787;SDS011;12883;52.662;5.196;2023-05-20T00:34:07;6.67;;;6.67;;
24787;SDS011;12883;52.662;5.196;2023-05-20T00:36:33;7.43;;;7.43;;
24787;SDS011;12883;52.662;5.196;2023-05-20T00:38:59;7.30;;;7.30;;
24787;SDS011;12883;52.662;5.196;2023-05-20T00:41:24;7.50;;;7.50;;
24787;SDS011;12883;52.662;5.196;2023-05-20T00:43:53;7.77;;;7.77;;
24787;SDS011;12883;52.662;5.196;2023-05-20T00:46:19;7.37;;;7.37;;
24787;SDS011;12883;52.662;5.196;2023-05-20T00:48:45;7.87;;;7.87;;
24787;SDS011;12883;52.662;5.196;2023-05-20T00:51:11;7.57;;;7.57;;
24787;SDS011;12883;52.662;5.196;2023-05-20T00:53:38;7.90;;;7.90;;
24787;SDS011;12883;52.662;5.196;2023-05-20T00:56:04;8.73;;;8.73;;
24787;SDS011;12883;52.662;5.196;2023-05-20T00:58:30;8.23;;;8.13;;
24787;SDS011;12883;52.662;5.196;2023-05-20T01:00:56;7.03;;;7.03;;
24787;SDS011;12883;52.662;5.196;2023-05-20T01:03:21;7.90;;;7.90;;
24787;SDS011;12883;52.662;5.196;2023-05-20T01:05:46;8.27;;;8.17;;
24787;SDS011;12883;52.662;5.196;2023-05-20T01:08:12;8.30;;;8.30;;
24787;SDS011;12883;52.662;5.196;2023-05-20T01:10:38;7.50;;;7.50;;
24787;SDS011;12883;52.662;5.196;2023-05-20T01:13:09;8.40;;;8.33;;
24787;SDS011;12883;52.662;5.196;2023-05-20T01:15:36;7.50;;;7.50;;
24787;SDS011;12883;52.662;5.196;2023-05-20T01:18:04;8.30;;;8.20;;
24787;SDS011;12883;52.662;5.196;2023-05-20T01:20:34;8.10;;;8.03;;
24787;SDS011;12883;52.662;5.196;2023-05-20T01:23:01;7.00;;;7.00;;
24787;SDS011;12883;52.662;5.196;2023-05-20T01:25:27;6.87;;;6.87;;
24787;SDS011;12883;52.662;5.196;2023-05-20T01:27:53;7.33;;;7.33;;
24787;SDS011;12883;52.662;5.196;2023-05-20T01:30:21;8.07;;;7.97;;
24787;SDS011;12883;52.662;5.196;2023-05-20T01:32:52;8.37;;;8.37;;
24787;SDS011;12883;52.662;5.196;2023-05-20T01:35:22;7.37;;;7.37;;
24787;SDS011;12883;52.662;5.196;2023-05-20T01:37:48;7.80;;;7.80;;
24787;SDS011;12883;52.662;5.196;2023-05-20T01:40:16;8.07;;;8.07;;
24787;SDS011;12883;52.662;5.196;2023-05-20T01:42:42;7.63;;;7.63;;
24787;SDS011;12883;52.662;5.196;2023-05-20T01:45:09;7.60;;;7.60;;
24787;SDS011;12883;52.662;5.196;2023-05-20T01:47:35;7.70;;;7.70;;
24787;SDS011;12883;52.662;5.196;2023-05-20T01:50:01;7.93;;;7.93;;
24787;SDS011;12883;52.662;5.196;2023-05-20T01:52:27;7.40;;;7.40;;
24787;SDS011;12883;52.662;5.196;2023-05-20T01:54:52;8.40;;;8.30;;
24787;SDS011;12883;52.662;5.196;2023-05-20T01:57:21;6.37;;;6.37;;
24787;SDS011;12883;52.662;5.196;2023-05-20T01:59:47;7.60;;;7.50;;
24787;SDS011;12883;52.662;5.196;2023-05-20T02:02:13;6.93;;;6.93;;
24787;SDS011;12883;52.662;5.196;2023-05-20T02:04:38;7.80;;;7.80;;
24787;SDS011;12883;52.662;5.196;2023-05-20T02:07:04;7.40;;;7.40;;
24787;SDS011;12883;52.662;5.196;2023-05-20T02:09:29;7.23;;;7.23;;
24787;SDS011;12883;52.662;5.196;2023-05-20T02:11:54;7.10;;;7.10;;
24787;SDS011;12883;52.662;5.196;2023-05-20T02:14:20;7.80;;;7.80;;
24787;SDS011;12883;52.662;5.196;2023-05-20T02:16:45;7.33;;;7.33;;
24787;SDS011;12883;52.662;5.196;2023-05-20T02:19:11;8.20;;;8.20;;
24787;SDS011;12883;52.662;5.196;2023-05-20T02:21:40;7.40;;;7.40;;
24787;SDS011;12883;52.662;5.196;2023-05-20T02:24:06;7.27;;;7.27;;
24787;SDS011;12883;52.662;5.196;2023-05-20T02:26:32;7.37;;;7.37;;
24787;SDS011;12883;52.662;5.196;2023-05-20T02:28:58;7.13;;;7.13;;
24787;SDS011;12883;52.662;5.196;2023-05-20T02:31:24;8.03;;;8.03;;
24787;SDS011;12883;52.662;5.196;2023-05-20T02:33:49;7.60;;;7.60;;
24787;SDS011;12883;52.662;5.196;2023-05-20T02:36:15;7.53;;;7.53;;
24787;SDS011;12883;52.662;5.196;2023-05-20T02:38:41;7.33;;;7.33;;
24787;SDS011;12883;52.662;5.196;2023-05-20T02:41:06;7.13;;;7.13;;
24787;SDS011;12883;52.662;5.196;2023-05-20T02:43:32;7.63;;;7.63;;
24787;SDS011;12883;52.662;5.196;2023-05-20T02:45:58;7.67;;;7.67;;
24787;SDS011;12883;52.662;5.196;2023-05-20T02:48:23;6.87;;;6.87;;
24787;SDS011;12883;52.662;5.196;2023-05-20T02:50:48;6.43;;;6.43;;
24787;SDS011;12883;52.662;5.196;2023-05-20T02:53:14;6.93;;;6.93;;
24787;SDS011;12883;52.662;5.196;2023-05-20T02:55:39;6.57;;;6.57;;
24787;SDS011;12883;52.662;5.196;2023-05-20T02:58:05;6.57;;;6.57;;
24787;SDS011;12883;52.662;5.196;2023-05-20T03:00:30;7.27;;;7.27;;
24787;SDS011;12883;52.662;5.196;2023-05-20T03:02:56;6.57;;;6.57;;
24787;SDS011;12883;52.662;5.196;2023-05-20T03:05:22;6.87;;;6.87;;
24787;SDS011;12883;52.662;5.196;2023-05-20T03:07:48;7.10;;;7.10;;
24787;SDS011;12883;52.662;5.196;2023-05-20T03:10:14;6.87;;;6.87;;
24787;SDS011;12883;52.662;5.196;2023-05-20T03:12:40;6.43;;;6.43;;
24787;SDS011;12883;52.662;5.196;2023-05-20T03:15:05;7.30;;;7.30;;
24787;SDS011;12883;52.662;5.196;2023-05-20T03:17:31;6.77;;;6.77;;
24787;SDS011;12883;52.662;5.196;2023-05-20T03:19:56;6.63;;;6.63;;
24787;SDS011;12883;52.662;5.196;2023-05-20T03:22:22;6.60;;;6.60;;
24787;SDS011;12883;52.662;5.196;2023-05-20T03:24:47;6.17;;;6.17;;
24787;SDS011;12883;52.662;5.196;2023-05-20T03:27:12;6.47;;;6.47;;
24787;SDS011;12883;52.662;5.196;2023-05-20T03:29:38;6.13;;;6.13;;
24787;SDS011;12883;52.662;5.196;2023-05-20T03:32:03;6.47;;;6.47;;
24787;SDS011;12883;52.662;5.196;2023-05-20T03:34:28;6.27;;;6.27;;
24787;SDS011;12883;52.662;5.196;2023-05-20T03:36:54;6.67;;;6.67;;
24787;SDS011;12883;52.662;5.196;2023-05-20T03:39:21;6.57;;;6.57;;
24787;SDS011;12883;52.662;5.196;2023-05-20T03:41:46;6.53;;;6.53;;
24787;SDS011;12883;52.662;5.196;2023-05-20T03:44:12;5.73;;;5.73;;
24787;SDS011;12883;52.662;5.196;2023-05-20T03:46:37;6.50;;;6.50;;
24787;SDS011;12883;52.662;5.196;2023-05-20T03:49:02;6.13;;;6.13;;
24787;SDS011;12883;52.662;5.196;2023-05-20T03:51:29;5.53;;;5.53;;
24787;SDS011;12883;52.662;5.196;2023-05-20T03:53:55;6.33;;;6.33;;
24787;SDS011;12883;52.662;5.196;2023-05-20T03:56:20;5.63;;;5.63;;
24787;SDS011;12883;52.662;5.196;2023-05-20T03:58:46;6.47;;;6.47;;
24787;SDS011;12883;52.662;5.196;2023-05-20T04:01:11;6.63;;;6.63;;
24787;SDS011;12883;52.662;5.196;2023-05-20T04:03:38;6.30;;;6.30;;
24787;SDS011;12883;52.662;5.196;2023-05-20T04:06:03;6.70;;;6.70;;
24787;SDS011;12883;52.662;5.196;2023-05-20T04:08:29;5.53;;;5.53;;
24787;SDS011;12883;52.662;5.196;2023-05-20T04:10:55;6.73;;;6.73;;
24787;SDS011;12883;52.662;5.196;2023-05-20T04:13:21;6.00;;;6.00;;
24787;SDS011;12883;52.662;5.196;2023-05-20T04:15:49;6.70;;;6.70;;
24787;SDS011;12883;52.662;5.196;2023-05-20T04:18:15;6.20;;;6.20;;
24787;SDS011;12883;52.662;5.196;2023-05-20T04:20:41;5.33;;;5.33;;
24787;SDS011;12883;52.662;5.196;2023-05-20T04:23:06;6.33;;;6.33;;
24787;SDS011;12883;52.662;5.196;2023-05-20T04:25:31;5.67;;;5.67;;
24787;SDS011;12883;52.662;5.196;2023-05-20T04:27:58;6.33;;;6.33;;
24787;SDS011;12883;52.662;5.196;2023-05-20T04:30:23;6.80;;;6.80;;
24787;SDS011;12883;52.662;5.196;2023-05-20T04:32:49;6.50;;;6.50;;
24787;SDS011;12883;52.662;5.196;2023-05-20T04:35:15;6.57;;;6.57;;
24787;SDS011;12883;52.662;5.196;2023-05-20T04:37:40;6.33;;;6.33;;
24787;SDS011;12883;52.662;5.196;2023-05-20T04:40:06;6.37;;;6.37;;
24787;SDS011;12883;52.662;5.196;2023-05-20T04:42:33;5.67;;;5.67;;
24787;SDS011;12883;52.662;5.196;2023-05-20T04:44:58;5.93;;;5.93;;
24787;SDS011;12883;52.662;5.196;2023-05-20T04:47:27;5.83;;;5.83;;
24787;SDS011;12883;52.662;5.196;2023-05-20T04:49:55;5.83;;;5.83;;
24787;SDS011;12883;52.662;5.196;2023-05-20T04:52:24;5.47;;;5.47;;
24787;SDS011;12883;52.662;5.196;2023-05-20T04:54:50;6.07;;;6.07;;
24787;SDS011;12883;52.662;5.196;2023-05-20T04:57:16;5.50;;;5.50;;
24787;SDS011;12883;52.662;5.196;2023-05-20T04:59:45;5.70;;;5.70;;
24787;SDS011;12883;52.662;5.196;2023-05-20T05:02:13;6.10;;;6.10;;
24787;SDS011;12883;52.662;5.196;2023-05-20T05:04:38;5.43;;;5.43;;
24787;SDS011;12883;52.662;5.196;2023-05-20T05:07:04;5.97;;;5.97;;
24787;SDS011;12883;52.662;5.196;2023-05-20T05:09:29;5.40;;;5.40;;
24787;SDS011;12883;52.662;5.196;2023-05-20T05:11:55;5.90;;;5.90;;
24787;SDS011;12883;52.662;5.196;2023-05-20T05:14:20;6.10;;;6.10;;
24787;SDS011;12883;52.662;5.196;2023-05-20T05:16:46;5.60;;;5.60;;
24787;SDS011;12883;52.662;5.196;2023-05-20T05:19:11;5.63;;;5.63;;
24787;SDS011;12883;52.662;5.196;2023-05-20T05:21:37;5.13;;;5.13;;
24787;SDS011;12883;52.662;5.196;2023-05-20T05:24:02;6.30;;;6.30;;
24787;SDS011;12883;52.662;5.196;2023-05-20T05:26:28;6.07;;;6.07;;
24787;SDS011;12883;52.662;5.196;2023-05-20T05:28:53;6.07;;;6.07;;
24787;SDS011;12883;52.662;5.196;2023-05-20T05:31:19;5.37;;;5.37;;
24787;SDS011;12883;52.662;5.196;2023-05-20T05:33:44;5.63;;;5.63;;
24787;SDS011;12883;52.662;5.196;2023-05-20T05:36:10;5.40;;;5.40;;
24787;SDS011;12883;52.662;5.196;2023-05-20T05:38:35;5.30;;;5.30;;
24787;SDS011;12883;52.662;5.196;2023-05-20T05:41:01;5.37;;;5.37;;
24787;SDS011;12883;52.662;5.196;2023-05-20T05:43:26;6.20;;;6.20;;
24787;SDS011;12883;52.662;5.196;2023-05-20T05:45:52;5.97;;;5.97;;
24787;SDS011;12883;52.662;5.196;2023-05-20T05:48:17;4.93;;;4.93;;
24787;SDS011;12883;52.662;5.196;2023-05-20T05:50:43;5.23;;;5.23;;
24787;SDS011;12883;52.662;5.196;2023-05-20T05:53:11;5.20;;;5.20;;
24787;SDS011;12883;52.662;5.196;2023-05-20T05:55:37;5.20;;;5.20;;
24787;SDS011;12883;52.662;5.196;2023-05-20T05:58:02;4.47;;;4.47;;
24787;SDS011;12883;52.662;5.196;2023-05-20T06:00:27;5.97;;;5.97;;
24787;SDS011;12883;52.662;5.196;2023-05-20T06:02:53;4.70;;;4.70;;
24787;SDS011;12883;52.662;5.196;2023-05-20T06:05:18;4.32;;;4.32;;
24787;SDS011;12883;52.662;5.196;2023-05-20T06:07:43;4.30;;;4.30;;
24787;SDS011;12883;52.662;5.196;2023-05-20T06:10:09;3.90;;;3.90;;
24787;SDS011;12883;52.662;5.196;2023-05-20T06:12:34;3.92;;;3.92;;
24787;SDS011;12883;52.662;5.196;2023-05-20T06:15:00;3.40;;;3.40;;
24787;SDS011;12883;52.662;5.196;2023-05-20T06:17:25;3.53;;;3.53;;
24787;SDS011;12883;52.662;5.196;2023-05-20T06:19:50;3.60;;;3.60;;
24787;SDS011;12883;52.662;5.196;2023-05-20T06:22:16;3.88;;;3.88;;
24787;SDS011;12883;52.662;5.196;2023-05-20T06:24:41;3.58;;;3.58;;
24787;SDS011;12883;52.662;5.196;2023-05-20T06:27:06;3.42;;;3.42;;
24787;SDS011;12883;52.662;5.196;2023-05-20T06:29:32;3.13;;;3.13;;
24787;SDS011;12883;52.662;5.196;2023-05-20T06:31:58;3.15;;;3.15;;
24787;SDS011;12883;52.662;5.196;2023-05-20T06:34:23;3.80;;;3.80;;
24787;SDS011;12883;52.662;5.196;2023-05-20T06:36:49;3.67;;;3.67;;
24787;SDS011;12883;52.662;5.196;2023-05-20T06:39:14;3.42;;;3.42;;
24787;SDS011;12883;52.662;5.196;2023-05-20T06:41:40;3.15;;;3.15;;
24787;SDS011;12883;52.662;5.196;2023-05-20T06:44:05;3.53;;;3.53;;
24787;SDS011;12883;52.662;5.196;2023-05-20T06:46:31;3.40;;;3.40;;
24787;SDS011;12883;52.662;5.196;2023-05-20T06:48:57;3.03;;;3.03;;
24787;SDS011;12883;52.662;5.196;2023-05-20T06:51:23;3.42;;;3.42;;
24787;SDS011;12883;52.662;5.196;2023-05-20T06:53:48;3.13;;;3.13;;
24787;SDS011;12883;52.662;5.196;2023-05-20T06:56:13;3.10;;;3.10;;
24787;SDS011;12883;52.662;5.196;2023-05-20T06:58:39;3.22;;;3.22;;
24787;SDS011;12883;52.662;5.196;2023-05-20T07:01:05;3.40;;;3.40;;
24787;SDS011;12883;52.662;5.196;2023-05-20T07:03:30;2.88;;;2.88;;
24787;SDS011;12883;52.662;5.196;2023-05-20T07:05:56;3.28;;;3.28;;
24787;SDS011;12883;52.662;5.196;2023-05-20T07:08:21;3.38;;;3.38;;
24787;SDS011;12883;52.662;5.196;2023-05-20T07:10:46;3.20;;;3.20;;
24787;SDS011;12883;52.662;5.196;2023-05-20T07:13:12;3.40;;;3.40;;
24787;SDS011;12883;52.662;5.196;2023-05-20T07:15:37;3.25;;;3.25;;
24787;SDS011;12883;52.662;5.196;2023-05-20T07:18:03;3.80;;;3.80;;
24787;SDS011;12883;52.662;5.196;2023-05-20T07:20:28;3.60;;;3.60;;
24787;SDS011;12883;52.662;5.196;2023-05-20T07:22:53;3.17;;;3.17;;
24787;SDS011;12883;52.662;5.196;2023-05-20T07:25:18;3.40;;;3.40;;
24787;SDS011;12883;52.662;5.196;2023-05-20T07:27:44;3.38;;;3.38;;
24787;SDS011;12883;52.662;5.196;2023-05-20T07:30:10;3.53;;;3.53;;
24787;SDS011;12883;52.662;5.196;2023-05-20T07:32:35;3.40;;;3.40;;
24787;SDS011;12883;52.662;5.196;2023-05-20T07:35:01;3.70;;;3.70;;
24787;SDS011;12883;52.662;5.196;2023-05-20T07:37:26;3.10;;;3.10;;
24787;SDS011;12883;52.662;5.196;2023-05-20T07:39:51;3.10;;;3.10;;
24787;SDS011;12883;52.662;5.196;2023-05-20T07:42:17;3.25;;;3.25;;
24787;SDS011;12883;52.662;5.196;2023-05-20T07:44:42;3.00;;;3.00;;
24787;SDS011;12883;52.662;5.196;2023-05-20T07:47:08;2.55;;;2.55;;
24787;SDS011;12883;52.662;5.196;2023-05-20T07:49:33;2.95;;;2.95;;
24787;SDS011;12883;52.662;5.196;2023-05-20T07:51:58;3.25;;;3.25;;
24787;SDS011;12883;52.662;5.196;2023-05-20T07:54:24;3.30;;;3.30;;
24787;SDS011;12883;52.662;5.196;2023-05-20T07:56:50;3.20;;;3.20;;
24787;SDS011;12883;52.662;5.196;2023-05-20T07:59:16;2.80;;;2.80;;
24787;SDS011;12883;52.662;5.196;2023-05-20T08:01:41;2.50;;;2.50;;
24787;SDS011;12883;52.662;5.196;2023-05-20T08:04:07;2.75;;;2.75;;
24787;SDS011;12883;52.662;5.196;2023-05-20T08:06:32;2.83;;;2.83;;
24787;SDS011;12883;52.662;5.196;2023-05-20T08:08:59;3.25;;;3.25;;
24787;SDS011;12883;52.662;5.196;2023-05-20T08:11:25;3.05;;;3.05;;
24787;SDS011;12883;52.662;5.196;2023-05-20T08:13:51;3.63;;;3.63;;
24787;SDS011;12883;52.662;5.196;2023-05-20T08:16:16;2.83;;;2.83;;
24787;SDS011;12883;52.662;5.196;2023-05-20T08:18:42;3.08;;;3.08;;
24787;SDS011;12883;52.662;5.196;2023-05-20T08:21:07;3.00;;;3.00;;
24787;SDS011;12883;52.662;5.196;2023-05-20T08:23:33;3.30;;;3.30;;
24787;SDS011;12883;52.662;5.196;2023-05-20T08:25:59;3.00;;;3.00;;
24787;SDS011;12883;52.662;5.196;2023-05-20T08:28:28;3.10;;;3.10;;
24787;SDS011;12883;52.662;5.196;2023-05-20T08:30:54;3.03;;;3.03;;
24787;SDS011;12883;52.662;5.196;2023-05-20T08:33:19;3.03;;;3.03;;
24787;SDS011;12883;52.662;5.196;2023-05-20T08:35:46;2.97;;;2.97;;
24787;SDS011;12883;52.662;5.196;2023-05-20T08:38:12;2.92;;;2.92;;
24787;SDS011;12883;52.662;5.196;2023-05-20T08:40:37;2.53;;;2.53;;
24787;SDS011;12883;52.662;5.196;2023-05-20T08:43:03;2.80;;;2.80;;
24787;SDS011;12883;52.662;5.196;2023-05-20T08:45:30;2.40;;;2.40;;
24787;SDS011;12883;52.662;5.196;2023-05-20T08:47:57;2.88;;;2.88;;
24787;SDS011;12883;52.662;5.196;2023-05-20T08:50:24;3.10;;;3.10;;
24787;SDS011;12883;52.662;5.196;2023-05-20T08:52:49;2.78;;;2.78;;
24787;SDS011;12883;52.662;5.196;2023-05-20T08:55:23;2.65;;;2.65;;
24787;SDS011;12883;52.662;5.196;2023-05-20T08:58:05;2.70;;;2.70;;
24787;SDS011;12883;52.662;5.196;2023-05-20T09:00:31;2.25;;;2.25;;
24787;SDS011;12883;52.662;5.196;2023-05-20T09:02:57;2.80;;;2.80;;
24787;SDS011;12883;52.662;5.196;2023-05-20T09:05:24;2.53;;;2.53;;
24787;SDS011;12883;52.662;5.196;2023-05-20T09:07:49;2.70;;;2.70;;
24787;SDS011;12883;52.662;5.196;2023-05-20T09:10:15;2.75;;;2.75;;
24787;SDS011;12883;52.662;5.196;2023-05-20T09:12:40;2.58;;;2.58;;
24787;SDS011;12883;52.662;5.196;2023-05-20T09:15:06;2.28;;;2.28;;
24787;SDS011;12883;52.662;5.196;2023-05-20T09:17:35;2.88;;;2.88;;
24787;SDS011;12883;52.662;5.196;2023-05-20T09:20:01;2.50;;;2.50;;
24787;SDS011;12883;52.662;5.196;2023-05-20T09:22:31;2.88;;;2.88;;
24787;SDS011;12883;52.662;5.196;2023-05-20T09:24:56;2.75;;;2.75;;
24787;SDS011;12883;52.662;5.196;2023-05-20T09:27:22;2.60;;;2.60;;
24787;SDS011;12883;52.662;5.196;2023-05-20T09:29:48;2.53;;;2.53;;
24787;SDS011;12883;52.662;5.196;2023-05-20T09:32:15;2.88;;;2.88;;
24787;SDS011;12883;52.662;5.196;2023-05-20T09:34:42;2.33;;;2.33;;
24787;SDS011;12883;52.662;5.196;2023-05-20T09:37:09;2.47;;;2.47;;
24787;SDS011;12883;52.662;5.196;2023-05-20T09:40:17;2.63;;;2.63;;
24787;SDS011;12883;52.662;5.196;2023-05-20T09:45:04;2.03;;;2.03;;
24787;SDS011;12883;52.662;5.196;2023-05-20T09:47:33;1.90;;;1.90;;
24787;SDS011;12883;52.662;5.196;2023-05-20T09:50:00;2.25;;;2.25;;
24787;SDS011;12883;52.662;5.196;2023-05-20T09:52:27;2.05;;;2.05;;
24787;SDS011;12883;52.662;5.196;2023-05-20T09:54:53;2.22;;;2.22;;
24787;SDS011;12883;52.662;5.196;2023-05-20T09:57:20;2.00;;;2.00;;
24787;SDS011;12883;52.662;5.196;2023-05-20T09:59:45;1.92;;;1.92;;
24787;SDS011;12883;52.662;5.196;2023-05-20T10:02:12;2.20;;;2.20;;
24787;SDS011;12883;52.662;5.196;2023-05-20T10:04:40;1.60;;;1.60;;
24787;SDS011;12883;52.662;5.196;2023-05-20T10:07:18;2.28;;;2.28;;
24787;SDS011;12883;52.662;5.196;2023-05-20T10:10:13;2.20;;;2.20;;
24787;SDS011;12883;52.662;5.196;2023-05-20T10:12:58;2.22;;;2.22;;
24787;SDS011;12883;52.662;5.196;2023-05-20T10:15:39;2.15;;;2.15;;
24787;SDS011;12883;52.662;5.196;2023-05-20T10:18:40;1.77;;;1.77;;
24787;SDS011;12883;52.662;5.196;2023-05-20T10:21:27;2.33;;;2.33;;
24787;SDS011;12883;52.662;5.196;2023-05-20T10:23:52;2.20;;;2.20;;
24787;SDS011;12883;52.662;5.196;2023-05-20T10:26:17;2.00;;;2.00;;
24787;SDS011;12883;52.662;5.196;2023-05-20T10:28:43;2.08;;;2.08;;
24787;SDS011;12883;52.662;5.196;2023-05-20T10:31:17;1.75;;;1.75;;
24787;SDS011;12883;52.662;5.196;2023-05-20T10:33:45;2.00;;;2.00;;
24787;SDS011;12883;52.662;5.196;2023-05-20T10:36:27;2.13;;;2.13;;
24787;SDS011;12883;52.662;5.196;2023-05-20T10:38:55;2.00;;;2.00;;
24787;SDS011;12883;52.662;5.196;2023-05-20T10:41:27;2.30;;;2.30;;
24787;SDS011;12883;52.662;5.196;2023-05-20T10:44:03;2.00;;;2.00;;
24787;SDS011;12883;52.662;5.196;2023-05-20T10:46:29;1.92;;;1.92;;
24787;SDS011;12883;52.662;5.196;2023-05-20T10:48:55;1.88;;;1.88;;
24787;SDS011;12883;52.662;5.196;2023-05-20T10:51:22;1.95;;;1.95;;
24787;SDS011;12883;52.662;5.196;2023-05-20T10:53:50;1.80;;;1.80;;
24787;SDS011;12883;52.662;5.196;2023-05-20T10:56:17;1.77;;;1.77;;
24787;SDS011;12883;52.662;5.196;2023-05-20T10:58:44;1.90;;;1.90;;
24787;SDS011;12883;52.662;5.196;2023-05-20T11:01:09;2.40;;;2.40;;
24787;SDS011;12883;52.662;5.196;2023-05-20T11:03:35;1.98;;;1.98;;
24787;SDS011;12883;52.662;5.196;2023-05-20T11:06:01;2.03;;;2.03;;
24787;SDS011;12883;52.662;5.196;2023-05-20T11:08:28;2.50;;;2.50;;
24787;SDS011;12883;52.662;5.196;2023-05-20T11:10:55;2.05;;;2.05;;
24787;SDS011;12883;52.662;5.196;2023-05-20T11:13:21;2.50;;;2.50;;
24787;SDS011;12883;52.662;5.196;2023-05-20T11:15:48;2.53;;;2.53;;
24787;SDS011;12883;52.662;5.196;2023-05-20T11:18:13;2.45;;;2.45;;
24787;SDS011;12883;52.662;5.196;2023-05-20T11:20:39;2.50;;;2.40;;
24787;SDS011;12883;52.662;5.196;2023-05-20T11:23:04;2.40;;;2.40;;
24787;SDS011;12883;52.662;5.196;2023-05-20T11:25:30;2.35;;;2.35;;
24787;SDS011;12883;52.662;5.196;2023-05-20T11:27:57;2.55;;;2.55;;
24787;SDS011;12883;52.662;5.196;2023-05-20T11:30:23;2.35;;;2.35;;
24787;SDS011;12883;52.662;5.196;2023-05-20T11:32:59;2.42;;;2.42;;
24787;SDS011;12883;52.662;5.196;2023-05-20T11:35:26;2.10;;;2.10;;
24787;SDS011;12883;52.662;5.196;2023-05-20T11:38:00;1.90;;;1.90;;
24787;SDS011;12883;52.662;5.196;2023-05-20T11:40:27;2.30;;;2.30;;
24787;SDS011;12883;52.662;5.196;2023-05-20T11:42:56;2.40;;;2.40;;
24787;SDS011;12883;52.662;5.196;2023-05-20T11:45:23;2.40;;;2.40;;
24787;SDS011;12883;52.662;5.196;2023-05-20T11:48:01;2.58;;;2.58;;
24787;SDS011;12883;52.662;5.196;2023-05-20T11:50:28;2.20;;;2.20;;
24787;SDS011;12883;52.662;5.196;2023-05-20T11:52:57;2.15;;;2.15;;
24787;SDS011;12883;52.662;5.196;2023-05-20T11:55:24;2.38;;;2.38;;
24787;SDS011;12883;52.662;5.196;2023-05-20T11:57:50;2.60;;;2.60;;
24787;SDS011;12883;52.662;5.196;2023-05-20T12:00:16;3.15;;;3.15;;
24787;SDS011;12883;52.662;5.196;2023-05-20T12:02:41;2.28;;;2.28;;
24787;SDS011;12883;52.662;5.196;2023-05-20T12:05:07;2.88;;;2.88;;
24787;SDS011;12883;52.662;5.196;2023-05-20T12:07:33;2.85;;;2.85;;
24787;SDS011;12883;52.662;5.196;2023-05-20T12:09:58;2.50;;;2.50;;
24787;SDS011;12883;52.662;5.196;2023-05-20T12:12:23;2.45;;;2.45;;
24787;SDS011;12883;52.662;5.196;2023-05-20T12:14:49;2.50;;;2.50;;
24787;SDS011;12883;52.662;5.196;2023-05-20T12:17:15;2.08;;;2.08;;
24787;SDS011;12883;52.662;5.196;2023-05-20T12:19:40;2.95;;;2.95;;
24787;SDS011;12883;52.662;5.196;2023-05-20T12:22:05;2.15;;;2.15;;
24787;SDS011;12883;52.662;5.196;2023-05-20T12:24:31;2.40;;;2.40;;
24787;SDS011;12883;52.662;5.196;2023-05-20T12:26:56;2.00;;;2.00;;
24787;SDS011;12883;52.662;5.196;2023-05-20T12:29:21;2.53;;;2.53;;
24787;SDS011;12883;52.662;5.196;2023-05-20T12:31:47;2.08;;;2.08;;
24787;SDS011;12883;52.662;5.196;2023-05-20T12:34:12;2.25;;;2.25;;
24787;SDS011;12883;52.662;5.196;2023-05-20T12:36:38;2.40;;;2.40;;
24787;SDS011;12883;52.662;5.196;2023-05-20T12:39:03;2.30;;;2.30;;
24787;SDS011;12883;52.662;5.196;2023-05-20T12:41:29;2.35;;;2.35;;
24787;SDS011;12883;52.662;5.196;2023-05-20T12:43:54;2.38;;;2.38;;
24787;SDS011;12883;52.662;5.196;2023-05-20T12:46:20;2.35;;;2.35;;
24787;SDS011;12883;52.662;5.196;2023-05-20T12:48:45;2.38;;;2.38;;
24787;SDS011;12883;52.662;5.196;2023-05-20T12:51:10;2.45;;;2.45;;
24787;SDS011;12883;52.662;5.196;2023-05-20T12:53:35;2.28;;;2.28;;
24787;SDS011;12883;52.662;5.196;2023-05-20T12:56:01;1.92;;;1.92;;
24787;SDS011;12883;52.662;5.196;2023-05-20T12:58:26;1.88;;;1.88;;
24787;SDS011;12883;52.662;5.196;2023-05-20T13:00:52;1.90;;;1.90;;
24787;SDS011;12883;52.662;5.196;2023-05-20T13:03:17;2.20;;;2.20;;
24787;SDS011;12883;52.662;5.196;2023-05-20T13:05:42;2.40;;;2.40;;
24787;SDS011;12883;52.662;5.196;2023-05-20T13:08:08;2.60;;;2.60;;
24787;SDS011;12883;52.662;5.196;2023-05-20T13:10:34;2.88;;;2.88;;
24787;SDS011;12883;52.662;5.196;2023-05-20T13:13:00;2.53;;;2.53;;
24787;SDS011;12883;52.662;5.196;2023-05-20T13:15:25;2.45;;;2.45;;
24787;SDS011;12883;52.662;5.196;2023-05-20T13:17:51;2.70;;;2.70;;
24787;SDS011;12883;52.662;5.196;2023-05-20T13:20:16;2.60;;;2.60;;
24787;SDS011;12883;52.662;5.196;2023-05-20T13:22:41;2.47;;;2.47;;
24787;SDS011;12883;52.662;5.196;2023-05-20T13:25:07;2.60;;;2.60;;
24787;SDS011;12883;52.662;5.196;2023-05-20T13:27:33;3.25;;;3.25;;
24787;SDS011;12883;52.662;5.196;2023-05-20T13:29:59;2.58;;;2.58;;
24787;SDS011;12883;52.662;5.196;2023-05-20T13:32:25;2.83;;;2.83;;
24787;SDS011;12883;52.662;5.196;2023-05-20T13:34:51;3.55;;;3.55;;
24787;SDS011;12883;52.662;5.196;2023-05-20T13:37:16;3.38;;;3.38;;
24787;SDS011;12883;52.662;5.196;2023-05-20T13:39:42;3.35;;;3.35;;
24787;SDS011;12883;52.662;5.196;2023-05-20T13:42:07;3.30;;;3.30;;
24787;SDS011;12883;52.662;5.196;2023-05-20T13:44:33;3.25;;;3.25;;
24787;SDS011;12883;52.662;5.196;2023-05-20T13:46:58;3.42;;;3.42;;
24787;SDS011;12883;52.662;5.196;2023-05-20T13:49:24;3.22;;;3.22;;
24787;SDS011;12883;52.662;5.196;2023-05-20T13:51:50;2.97;;;2.97;;
24787;SDS011;12883;52.662;5.196;2023-05-20T13:54:15;3.63;;;3.63;;
24787;SDS011;12883;52.662;5.196;2023-05-20T13:56:41;3.35;;;3.35;;
24787;SDS011;12883;52.662;5.196;2023-05-20T13:59:06;3.00;;;3.00;;
24787;SDS011;12883;52.662;5.196;2023-05-20T14:01:31;3.65;;;3.65;;
24787;SDS011;12883;52.662;5.196;2023-05-20T14:03:57;2.75;;;2.75;;
24787;SDS011;12883;52.662;5.196;2023-05-20T14:06:23;2.83;;;2.83;;
24787;SDS011;12883;52.662;5.196;2023-05-20T14:08:49;2.95;;;2.95;;
24787;SDS011;12883;52.662;5.196;2023-05-20T14:11:17;3.17;;;3.17;;
24787;SDS011;12883;52.662;5.196;2023-05-20T14:13:44;2.67;;;2.67;;
24787;SDS011;12883;52.662;5.196;2023-05-20T14:16:09;3.45;;;3.45;;
24787;SDS011;12883;52.662;5.196;2023-05-20T14:18:34;3.42;;;3.42;;
24787;SDS011;12883;52.662;5.196;2023-05-20T14:21:00;3.40;;;3.40;;
24787;SDS011;12883;52.662;5.196;2023-05-20T14:23:25;3.60;;;3.60;;
24787;SDS011;12883;52.662;5.196;2023-05-20T14:25:50;3.03;;;3.03;;
24787;SDS011;12883;52.662;5.196;2023-05-20T14:28:16;3.17;;;3.17;;
24787;SDS011;12883;52.662;5.196;2023-05-20T14:30:41;3.67;;;3.67;;
24787;SDS011;12883;52.662;5.196;2023-05-20T14:33:06;3.65;;;3.65;;
24787;SDS011;12883;52.662;5.196;2023-05-20T14:35:32;3.22;;;3.22;;
24787;SDS011;12883;52.662;5.196;2023-05-20T14:37:57;3.10;;;3.10;;
24787;SDS011;12883;52.662;5.196;2023-05-20T14:40:23;3.08;;;3.08;;
24787;SDS011;12883;52.662;5.196;2023-05-20T14:42:48;3.30;;;3.30;;
24787;SDS011;12883;52.662;5.196;2023-05-20T14:45:14;4.53;;;4.53;;